createdAt,value
2019-04-10T00:00:00.264Z,22.50
2019-04-10T00:02:29.297Z,22.50
2019-04-10T00:04:56.659Z,22.40
2019-04-10T00:07:23.581Z,22.50
2019-04-10T00:09:50.439Z,22.40
2019-04-10T00:12:17.699Z,22.40
2019-04-10T00:14:44.977Z,22.50
2019-04-10T00:17:11.716Z,22.40
2019-04-10T00:19:38.032Z,22.40
2019-04-10T00:26:58.444Z,22.40
2019-04-10T00:29:24.896Z,22.40
2019-04-10T00:31:50.942Z,22.30
2019-04-10T00:34:17.778Z,22.30
2019-04-10T00:36:44.303Z,22.30
2019-04-10T00:39:10.533Z,22.30
2019-04-10T00:41:37.144Z,22.30
2019-04-10T00:46:30.430Z,22.30
2019-04-10T00:48:58.614Z,22.30
2019-04-10T00:51:25.577Z,22.30
2019-04-10T00:53:52.412Z,22.30
2019-04-10T00:56:18.651Z,22.20
2019-04-10T00:58:45.792Z,22.20
2019-04-10T01:01:13.805Z,22.00
2019-04-10T01:03:43.878Z,22.20
2019-04-10T01:06:12.308Z,22.20
2019-04-10T01:08:40.535Z,22.20
2019-04-10T01:11:08.812Z,22.10
2019-04-10T01:18:29.237Z,22.10
2019-04-10T01:23:22.622Z,22.10
2019-04-10T01:25:50.531Z,22.10
2019-04-10T01:28:17.188Z,22.10
2019-04-10T01:30:43.499Z,22.10
2019-04-10T01:33:09.576Z,22.10
2019-04-10T01:35:35.660Z,22.00
2019-04-10T01:38:04.635Z,22.00
2019-04-10T01:40:30.880Z,22.20
2019-04-10T01:43:09.285Z,22.00
2019-04-10T01:45:25.711Z,22.00
2019-04-10T01:47:53.191Z,22.00
2019-04-10T01:50:20.166Z,22.00
2019-04-10T01:52:47.148Z,22.00
2019-04-10T01:55:23.079Z,21.90
2019-04-10T01:57:42.321Z,22.00
2019-04-10T02:00:13.161Z,22.00
2019-04-10T02:02:41.604Z,22.10
2019-04-10T02:07:35.600Z,21.90
2019-04-10T02:10:04.227Z,21.90
2019-04-10T02:14:57.291Z,21.90
2019-04-10T02:17:24.378Z,21.80
2019-04-10T02:19:50.876Z,21.80
2019-04-10T02:22:17.224Z,21.80
2019-04-10T02:24:43.394Z,21.80
2019-04-10T02:29:36.911Z,21.80
2019-04-10T02:32:04.128Z,21.80
2019-04-10T02:37:00.642Z,21.80
2019-04-10T02:39:35.148Z,21.70
2019-04-10T02:44:26.113Z,21.70
2019-04-10T02:46:51.849Z,21.70
2019-04-10T02:49:20.344Z,21.70
2019-04-10T02:51:47.601Z,21.70
2019-04-10T02:54:15.443Z,21.70
2019-04-10T02:56:43.320Z,21.70
2019-04-10T02:59:11.070Z,21.60
2019-04-10T03:01:38.299Z,21.60
2019-04-10T03:09:24.167Z,21.60
2019-04-10T03:14:04.642Z,21.60
2019-04-10T03:18:58.258Z,21.50
2019-04-10T03:21:24.308Z,21.50
2019-04-10T03:23:50.697Z,21.60
2019-04-10T03:26:17.263Z,21.50
2019-04-10T03:28:44.168Z,21.50
2019-04-10T03:31:10.676Z,21.50
2019-04-10T03:33:44.662Z,21.50
2019-04-10T03:36:08.074Z,21.50
2019-04-10T03:41:03.911Z,21.50
2019-04-10T03:43:30.706Z,21.40
2019-04-10T03:45:57.145Z,21.40
2019-04-10T03:48:23.810Z,21.40
2019-04-10T03:50:50.269Z,21.40
2019-04-10T03:53:16.405Z,21.40
2019-04-10T03:55:43.230Z,21.40
2019-04-10T03:58:11.348Z,21.40
2019-04-10T04:00:38.340Z,21.40
2019-04-10T04:03:06.498Z,21.40
2019-04-10T04:05:32.886Z,21.30
2019-04-10T04:07:59.204Z,21.30
2019-04-10T04:10:26.727Z,21.30
2019-04-10T04:12:53.563Z,21.40
2019-04-10T04:15:19.904Z,21.30
2019-04-10T04:17:46.520Z,21.20
2019-04-10T04:20:14.865Z,21.30
2019-04-10T04:22:41.228Z,21.30
2019-04-10T04:25:09.240Z,21.40
2019-04-10T04:27:35.728Z,21.20
2019-04-10T04:30:06.464Z,21.20
2019-04-10T04:35:00.668Z,21.20
2019-04-10T04:37:26.773Z,21.10
2019-04-10T04:42:20.770Z,21.20
2019-04-10T04:44:47.713Z,21.20
2019-04-10T04:47:15.652Z,21.10
2019-04-10T04:49:42.134Z,21.10
2019-04-10T04:52:11.171Z,21.10
2019-04-10T04:57:04.512Z,21.10
2019-04-10T04:59:30.961Z,21.10
2019-04-10T05:01:57.107Z,21.10
2019-04-10T05:04:23.532Z,21.00
2019-04-10T05:06:50.067Z,21.10
2019-04-10T05:09:27.395Z,21.10
2019-04-10T05:11:44.944Z,21.00
2019-04-10T05:14:11.257Z,21.10
2019-04-10T05:19:04.118Z,21.00
2019-04-10T05:21:30.451Z,21.00
2019-04-10T05:23:57.513Z,21.00
2019-04-10T05:26:23.707Z,21.00
2019-04-10T05:28:50.858Z,21.00
2019-04-10T05:31:17.611Z,21.00
2019-04-10T05:36:13.243Z,21.00
2019-04-10T05:38:39.980Z,20.90
2019-04-10T05:43:34.193Z,21.00
2019-04-10T05:46:02.646Z,21.10
2019-04-10T05:48:29.590Z,20.90
2019-04-10T05:51:01.277Z,20.90
2019-04-10T05:53:24.559Z,20.90
2019-04-10T05:55:51.629Z,21.10
2019-04-10T05:58:19.622Z,20.90
2019-04-10T06:00:47.072Z,20.90
2019-04-10T06:03:14.466Z,20.90
2019-04-10T06:05:42.236Z,20.90
2019-04-10T06:08:09.827Z,20.90
2019-04-10T06:10:37.225Z,21.00
2019-04-10T06:13:03.272Z,20.90
2019-04-10T06:17:58.603Z,20.90
2019-04-10T06:20:25.224Z,20.90
2019-04-10T06:25:22.166Z,21.00
2019-04-10T06:27:48.415Z,20.90
2019-04-10T06:30:15.494Z,21.00
2019-04-10T06:35:11.384Z,21.00
2019-04-10T06:40:16.405Z,21.00
2019-04-10T06:42:44.731Z,21.00
2019-04-10T06:45:05.767Z,20.80
2019-04-10T06:47:34.016Z,21.00
2019-04-10T06:50:00.434Z,21.10
2019-04-10T06:52:27.001Z,21.10
2019-04-10T06:54:54.110Z,21.10
2019-04-10T06:57:21.056Z,21.20
2019-04-10T06:59:48.176Z,21.10
2019-04-10T07:02:23.717Z,21.10
2019-04-10T07:04:48.471Z,21.10
2019-04-10T07:07:13.953Z,21.10
2019-04-10T07:12:07.933Z,21.20
2019-04-10T07:14:36.864Z,21.10
2019-04-10T07:22:01.493Z,21.20
2019-04-10T07:24:27.335Z,21.40
2019-04-10T07:26:53.688Z,21.20
2019-04-10T07:29:24.751Z,21.10
2019-04-10T07:31:48.779Z,21.20
2019-04-10T07:34:20.040Z,21.20
2019-04-10T07:36:45.129Z,21.20
2019-04-10T07:39:11.587Z,21.10
2019-04-10T07:41:37.831Z,21.10
2019-04-10T07:46:32.665Z,21.10
2019-04-10T07:48:59.433Z,21.10
2019-04-10T07:51:25.679Z,21.10
2019-04-10T07:53:52.637Z,21.10
2019-04-10T07:56:20.787Z,21.10
2019-04-10T07:58:48.217Z,21.00
2019-04-10T08:01:14.723Z,21.10
2019-04-10T08:03:41.621Z,21.10
2019-04-10T08:06:09.040Z,21.10
2019-04-10T08:08:36.356Z,21.10
2019-04-10T08:11:02.680Z,21.10
2019-04-10T08:13:28.938Z,21.00
2019-04-10T08:15:56.343Z,21.10
2019-04-10T08:18:25.330Z,21.10
2019-04-10T08:23:19.793Z,21.10
2019-04-10T08:25:47.384Z,21.10
2019-04-10T08:28:13.688Z,21.00
2019-04-10T08:33:06.237Z,21.10
2019-04-10T08:35:33.601Z,21.00
2019-04-10T08:38:01.255Z,21.00
2019-04-10T08:40:27.941Z,21.00
2019-04-10T08:42:54.056Z,21.00
2019-04-10T08:45:21.035Z,21.00
2019-04-10T08:47:48.694Z,21.00
2019-04-10T08:50:17.358Z,21.00
2019-04-10T08:52:44.573Z,20.90
2019-04-10T08:55:11.569Z,21.00
2019-04-10T08:57:38.269Z,21.00
2019-04-10T09:00:06.581Z,21.00
2019-04-10T09:05:01.416Z,21.00
2019-04-10T09:07:28.652Z,21.00
2019-04-10T09:09:54.704Z,21.00
2019-04-10T09:12:21.991Z,21.00
2019-04-10T09:14:49.612Z,21.10
2019-04-10T09:17:17.527Z,21.00
2019-04-10T09:19:44.345Z,21.00
2019-04-10T09:22:12.056Z,21.10
2019-04-10T09:24:39.016Z,21.00
2019-04-10T09:27:05.135Z,21.00
2019-04-10T09:31:58.336Z,21.00
2019-04-10T09:34:25.346Z,21.00
2019-04-10T09:36:52.163Z,23.70
2019-04-10T09:39:19.167Z,21.00
2019-04-10T09:41:46.109Z,21.00
2019-04-10T09:46:38.960Z,21.00
2019-04-10T09:51:34.136Z,21.00
2019-04-10T09:54:01.466Z,21.00
2019-04-10T09:56:27.708Z,21.00
2019-04-10T09:58:53.823Z,21.00
2019-04-10T10:01:20.186Z,21.00
2019-04-10T10:03:46.236Z,21.00
2019-04-10T10:06:23.484Z,21.00
2019-04-10T10:08:41.563Z,21.10
2019-04-10T10:11:09.498Z,20.90
2019-04-10T10:13:37.388Z,21.00
2019-04-10T10:16:04.531Z,21.00
2019-04-10T10:18:30.603Z,21.00
2019-04-10T10:23:23.359Z,21.10
2019-04-10T10:25:49.403Z,21.00
2019-04-10T10:28:15.502Z,21.00
2019-04-10T10:30:42.188Z,20.90
2019-04-10T10:33:09.721Z,20.90
2019-04-10T10:35:36.500Z,21.10
2019-04-10T10:38:03.950Z,20.90
2019-04-10T10:40:31.852Z,20.90
2019-04-10T10:42:58.445Z,20.90
2019-04-10T10:45:25.018Z,20.90
2019-04-10T10:47:52.643Z,20.90
2019-04-10T10:50:19.517Z,20.90
2019-04-10T10:52:45.933Z,20.90
2019-04-10T10:57:39.820Z,21.00
2019-04-10T11:00:08.394Z,20.90
2019-04-10T11:02:35.907Z,20.90
2019-04-10T11:05:06.900Z,20.90
2019-04-10T11:07:32.990Z,20.90
2019-04-10T11:10:01.438Z,20.90
2019-04-10T11:12:28.624Z,20.90
2019-04-10T11:14:56.191Z,20.90
2019-04-10T11:17:22.832Z,20.90
2019-04-10T11:19:48.983Z,20.90
2019-04-10T11:22:19.967Z,20.80
2019-04-10T11:24:44.451Z,20.90
2019-04-10T11:27:11.797Z,20.90
2019-04-10T11:29:38.991Z,20.90
2019-04-10T11:32:06.752Z,20.80
2019-04-10T11:34:35.245Z,20.90
2019-04-10T11:37:21.596Z,20.80
2019-04-10T11:39:33.082Z,20.80
2019-04-10T11:42:00.007Z,20.90
2019-04-10T11:46:55.630Z,20.90
2019-04-10T11:49:23.197Z,20.90
2019-04-10T11:51:52.763Z,21.00
2019-04-10T11:54:23.635Z,20.90
2019-04-10T11:56:48.637Z,20.80
2019-04-10T11:59:14.480Z,20.90
2019-04-10T12:01:43.190Z,20.90
2019-04-10T12:04:10.759Z,20.80
2019-04-10T12:06:38.215Z,20.90
2019-04-10T12:14:05.001Z,20.80
2019-04-10T12:16:31.757Z,20.90
2019-04-10T12:18:59.170Z,20.90
2019-04-10T12:21:26.238Z,21.00
2019-04-10T12:23:53.481Z,20.90
2019-04-10T12:26:20.531Z,20.90
2019-04-10T12:28:46.680Z,20.90
2019-04-10T12:31:12.732Z,20.80
2019-04-10T12:33:39.095Z,20.90
2019-04-10T12:36:08.048Z,20.90
2019-04-10T12:38:34.427Z,20.90
2019-04-10T12:41:01.346Z,21.00
2019-04-10T12:43:27.521Z,20.80
2019-04-10T12:45:54.723Z,20.80
2019-04-10T12:48:21.447Z,20.80
2019-04-10T12:53:13.939Z,20.90
2019-04-10T12:58:13.572Z,20.80
2019-04-10T13:00:36.204Z,20.80
2019-04-10T13:03:02.964Z,20.80
2019-04-10T13:05:29.511Z,20.90
2019-04-10T13:07:56.182Z,20.80
2019-04-10T13:10:23.191Z,20.90
2019-04-10T13:12:49.940Z,20.90
2019-04-10T13:15:16.427Z,20.80
2019-04-10T13:17:42.748Z,20.80
2019-04-10T13:20:11.060Z,20.70
2019-04-10T13:22:37.363Z,20.80
2019-04-10T13:27:34.717Z,20.70
2019-04-10T13:30:02.951Z,20.70
2019-04-10T13:32:29.552Z,20.70
2019-04-10T13:34:55.876Z,20.70
2019-04-10T13:37:22.120Z,20.70
2019-04-10T13:42:16.813Z,20.70
2019-04-10T13:44:43.855Z,20.70
2019-04-10T13:49:36.481Z,20.70
2019-04-10T13:52:03.572Z,20.60
2019-04-10T13:54:30.559Z,20.70
2019-04-10T13:56:57.251Z,20.70
2019-04-10T13:59:24.827Z,20.60
2019-04-10T14:01:52.559Z,20.70
2019-04-10T14:06:48.560Z,20.60
2019-04-10T14:09:30.074Z,20.60
2019-04-10T14:11:45.722Z,20.70
2019-04-10T14:14:13.131Z,20.60
2019-04-10T14:16:39.221Z,20.60
2019-04-10T14:19:07.745Z,20.50
2019-04-10T14:21:35.244Z,20.60
2019-04-10T14:24:05.135Z,20.60
2019-04-10T14:26:52.764Z,20.70
2019-04-10T14:29:20.530Z,20.50
2019-04-10T14:31:49.082Z,20.60
2019-04-10T14:34:16.529Z,20.60
2019-04-10T14:36:44.290Z,20.50
2019-04-10T14:39:18.472Z,20.50
2019-04-10T14:46:36.704Z,20.50
2019-04-10T14:49:02.905Z,20.50
2019-04-10T14:51:30.354Z,20.50
2019-04-10T14:53:57.475Z,20.50
2019-04-10T14:56:24.157Z,20.60
2019-04-10T14:58:51.300Z,20.40
2019-04-10T15:01:17.741Z,20.40
2019-04-10T15:03:44.831Z,20.40
2019-04-10T15:06:13.191Z,20.40
2019-04-10T15:08:39.763Z,20.40
2019-04-10T15:11:06.680Z,20.40
2019-04-10T15:13:33.948Z,20.40
2019-04-10T15:16:00.871Z,20.40
2019-04-10T15:18:28.647Z,20.40
2019-04-10T15:20:56.583Z,20.40
2019-04-10T15:23:23.514Z,20.40
2019-04-10T15:25:49.577Z,20.40
2019-04-10T15:28:16.074Z,20.40
2019-04-10T15:30:42.843Z,20.40
2019-04-10T15:33:10.000Z,20.40
2019-04-10T15:35:36.695Z,20.40
2019-04-10T15:38:04.029Z,20.40
2019-04-10T15:40:30.584Z,20.40
2019-04-10T15:45:23.858Z,20.30
2019-04-10T15:47:54.508Z,20.30
2019-04-10T15:50:18.998Z,20.30
2019-04-10T15:52:45.740Z,20.40
2019-04-10T15:57:48.807Z,20.30
2019-04-10T16:02:38.530Z,20.20
2019-04-10T16:07:34.208Z,20.20
2019-04-10T16:10:06.614Z,20.20
2019-04-10T16:12:35.076Z,20.20
2019-04-10T16:15:04.932Z,20.20
2019-04-10T16:17:33.462Z,20.20
2019-04-10T16:20:20.048Z,20.20
2019-04-10T16:22:48.892Z,20.20
2019-04-10T16:25:17.877Z,20.20
2019-04-10T16:27:45.320Z,20.40
2019-04-10T16:30:18.611Z,20.20
2019-04-10T16:32:45.163Z,20.20
2019-04-10T16:35:12.269Z,20.20
2019-04-10T16:40:08.325Z,20.20
2019-04-10T16:45:02.265Z,20.30
2019-04-10T16:47:28.555Z,20.20
2019-04-10T16:49:55.402Z,20.20
2019-04-10T16:54:49.823Z,20.20
2019-04-10T17:02:09.522Z,20.20
2019-04-10T17:04:36.107Z,20.20
2019-04-10T17:07:03.005Z,20.20
2019-04-10T17:09:30.580Z,20.20
2019-04-10T17:11:58.604Z,20.20
2019-04-10T17:14:24.622Z,20.10
2019-04-10T17:21:46.719Z,20.10
2019-04-10T17:24:13.548Z,20.20
2019-04-10T17:26:41.190Z,20.10
2019-04-10T17:29:07.428Z,20.10
2019-04-10T17:31:34.915Z,20.10
2019-04-10T17:34:01.244Z,20.10
2019-04-10T17:38:55.121Z,20.10
2019-04-10T17:41:21.962Z,20.10
2019-04-10T17:43:49.528Z,20.10
2019-04-10T17:48:44.319Z,20.30
2019-04-10T17:51:10.420Z,20.10
2019-04-10T17:56:04.635Z,20.10
2019-04-10T17:58:31.655Z,20.20
2019-04-10T18:03:41.049Z,20.00
2019-04-10T18:05:57.172Z,20.10
2019-04-10T18:08:26.391Z,20.10
2019-04-10T18:13:20.524Z,20.00
2019-04-10T18:15:48.274Z,20.20
2019-04-10T18:18:15.734Z,20.10
2019-04-10T18:20:42.984Z,20.10
2019-04-10T18:23:09.360Z,20.00
2019-04-10T18:25:36.184Z,20.10
2019-04-10T18:28:03.456Z,20.00
2019-04-10T18:30:32.453Z,20.00
2019-04-10T18:35:24.803Z,20.00
2019-04-10T18:37:51.396Z,20.10
2019-04-10T18:40:17.547Z,20.20
2019-04-10T18:45:13.358Z,20.00
2019-04-10T18:47:39.938Z,20.00
2019-04-10T18:52:35.156Z,20.00
2019-04-10T18:55:01.364Z,19.90
2019-04-10T18:59:58.852Z,20.00
2019-04-10T19:02:41.895Z,20.00
2019-04-10T19:05:14.076Z,20.00
2019-04-10T19:07:40.630Z,19.90
2019-04-10T19:10:08.200Z,19.90
2019-04-10T19:12:34.968Z,19.90
2019-04-10T19:15:01.152Z,20.10
2019-04-10T19:17:27.725Z,19.90
2019-04-10T19:19:54.673Z,19.90
2019-04-10T19:22:22.062Z,19.80
2019-04-10T19:24:48.217Z,19.90
2019-04-10T19:27:14.543Z,19.90
2019-04-10T19:29:40.875Z,19.90
2019-04-10T19:32:09.969Z,20.00
2019-04-10T19:34:37.224Z,19.90
2019-04-10T19:37:04.068Z,19.90
2019-04-10T19:39:32.214Z,19.90
2019-04-10T19:41:59.214Z,19.90
2019-04-10T19:46:53.666Z,19.90
2019-04-10T19:49:21.792Z,19.90
2019-04-10T19:51:48.770Z,19.90
2019-04-10T19:54:15.776Z,20.00
2019-04-10T19:56:42.500Z,19.90
2019-04-10T19:59:10.438Z,19.80
2019-04-10T20:01:38.035Z,19.90
2019-04-10T20:04:04.753Z,20.00
2019-04-10T20:06:32.097Z,19.90
2019-04-10T20:09:00.066Z,19.90
2019-04-10T20:11:37.585Z,19.90
2019-04-10T20:13:54.985Z,19.80
2019-04-10T20:16:21.117Z,19.90
2019-04-10T20:18:47.197Z,19.80
2019-04-10T20:21:13.295Z,19.90
2019-04-10T20:23:40.397Z,19.80
2019-04-10T20:26:07.873Z,19.80
2019-04-10T20:28:33.948Z,19.80
2019-04-10T20:33:27.875Z,19.90
2019-04-10T20:35:54.211Z,19.80
2019-04-10T20:38:20.261Z,19.80
2019-04-10T20:40:46.451Z,19.80
2019-04-10T20:43:13.300Z,19.80
2019-04-10T20:48:06.633Z,19.90
2019-04-10T20:50:32.878Z,19.80
2019-04-10T20:52:59.832Z,19.70
2019-04-10T20:55:27.764Z,19.80
2019-04-10T20:57:54.271Z,19.70
2019-04-10T21:02:55.115Z,19.90
2019-04-10T21:05:21.941Z,19.80
2019-04-10T21:07:48.327Z,19.80
2019-04-10T21:12:41.928Z,19.70
2019-04-10T21:15:09.035Z,19.70
2019-04-10T21:17:36.127Z,19.70
2019-04-10T21:20:05.688Z,19.60
2019-04-10T21:22:32.783Z,19.70
2019-04-10T21:25:00.520Z,19.70
2019-04-10T21:27:27.963Z,19.70
2019-04-10T21:29:57.073Z,19.70
2019-04-10T21:32:28.640Z,19.70
2019-04-10T21:34:55.536Z,19.90
2019-04-10T21:37:22.226Z,19.70
2019-04-10T21:39:48.443Z,19.70
2019-04-10T21:42:20.107Z,19.70
2019-04-10T21:44:42.959Z,19.90
2019-04-10T21:47:10.782Z,19.60
2019-04-10T21:49:38.515Z,19.70
2019-04-10T21:52:05.752Z,19.70
2019-04-10T21:54:32.128Z,19.60
2019-04-10T21:56:59.678Z,19.70
2019-04-10T21:59:26.849Z,19.70
2019-04-10T22:01:54.909Z,19.80
2019-04-10T22:04:23.143Z,19.60
2019-04-10T22:06:54.373Z,19.50
2019-04-10T22:09:37.343Z,19.60
2019-04-10T22:12:20.636Z,19.60
2019-04-10T22:14:37.018Z,19.50
2019-04-10T22:19:30.731Z,19.50
2019-04-10T22:24:24.176Z,19.50
2019-04-10T22:29:17.635Z,19.50
2019-04-10T22:31:45.822Z,19.70
2019-04-10T22:34:12.064Z,19.40
2019-04-10T22:39:08.847Z,19.50
2019-04-10T22:41:36.472Z,19.50
2019-04-10T22:44:04.080Z,19.50
2019-04-10T22:46:30.139Z,19.50
2019-04-10T22:48:57.707Z,19.50
2019-04-10T22:51:24.794Z,19.40
2019-04-10T22:53:51.939Z,19.40
2019-04-10T22:56:18.026Z,19.50
2019-04-10T23:01:13.186Z,19.40
2019-04-10T23:03:39.700Z,19.60
2019-04-10T23:06:07.026Z,19.40
2019-04-10T23:08:33.729Z,19.40
2019-04-10T23:11:01.401Z,19.40
2019-04-10T23:13:28.612Z,19.40
2019-04-10T23:18:23.523Z,19.30
2019-04-10T23:20:50.328Z,19.40
2019-04-10T23:23:17.327Z,19.50
2019-04-10T23:25:43.384Z,19.30
2019-04-10T23:30:37.647Z,19.30
2019-04-10T23:35:31.537Z,19.30
2019-04-10T23:37:57.907Z,19.30
2019-04-10T23:43:02.695Z,19.30
2019-04-10T23:45:20.430Z,19.10
2019-04-10T23:47:46.760Z,19.20
2019-04-10T23:50:15.045Z,19.40
2019-04-10T23:52:42.233Z,19.20
2019-04-10T23:55:10.121Z,19.40
2019-04-10T23:57:37.665Z,19.20
